createdAt,value
2023-04-08T00:01:15.034Z,13.10
2023-04-08T00:03:41.957Z,13.90
2023-04-08T00:06:08.739Z,14.47
2023-04-08T00:08:35.515Z,12.63
2023-04-08T00:11:02.246Z,13.50
2023-04-08T00:13:29.206Z,15.03
2023-04-08T00:15:55.930Z,16.07
2023-04-08T00:18:22.645Z,15.50
2023-04-08T00:20:49.412Z,18.50
2023-04-08T00:23:16.124Z,17.83
2023-04-08T00:25:42.954Z,17.57
2023-04-08T00:28:09.668Z,14.50
2023-04-08T00:30:36.546Z,12.80
2023-04-08T00:33:03.528Z,20.00
2023-04-08T00:35:30.338Z,20.07
2023-04-08T00:37:57.046Z,22.27
2023-04-08T00:40:23.784Z,15.73
2023-04-08T00:42:50.612Z,15.60
2023-04-08T00:45:17.415Z,18.47
2023-04-08T00:47:44.230Z,18.77
2023-04-08T00:50:11.367Z,22.07
2023-04-08T00:52:38.230Z,25.60
2023-04-08T00:55:05.706Z,16.77
2023-04-08T00:57:32.629Z,17.40
2023-04-08T01:00:00.392Z,16.13
2023-04-08T01:02:44.635Z,18.00
2023-04-08T01:05:33.534Z,17.67
2023-04-08T01:08:02.821Z,20.20
2023-04-08T01:10:33.398Z,24.37
2023-04-08T01:13:03.759Z,22.43
2023-04-08T01:15:32.174Z,17.90
2023-04-08T01:18:00.706Z,14.43
2023-04-08T01:20:29.380Z,25.60
2023-04-08T01:23:16.282Z,22.23
2023-04-08T01:25:52.318Z,25.13
2023-04-08T01:28:21.197Z,16.67
2023-04-08T01:30:50.009Z,16.23
2023-04-08T01:33:19.057Z,24.00
2023-04-08T01:35:46.308Z,22.33
2023-04-08T01:38:17.074Z,15.00
2023-04-08T01:40:45.224Z,20.90
2023-04-08T01:43:14.868Z,13.60
2023-04-08T01:45:45.744Z,14.77
2023-04-08T01:48:14.735Z,15.10
2023-04-08T01:50:45.908Z,16.43
2023-04-08T01:53:12.961Z,13.63
2023-04-08T01:55:41.885Z,20.60
2023-04-08T01:58:11.973Z,19.37
2023-04-08T02:00:41.031Z,19.33
2023-04-08T02:03:11.186Z,18.03
2023-04-08T02:05:39.161Z,16.93
2023-04-08T02:08:06.002Z,18.23
2023-04-08T02:10:32.760Z,17.50
2023-04-08T02:12:59.659Z,22.60
2023-04-08T02:15:28.966Z,19.90
2023-04-08T02:17:58.727Z,20.63
2023-04-08T02:20:37.996Z,20.57
2023-04-08T02:23:27.542Z,19.30
2023-04-08T02:25:56.749Z,17.07
2023-04-08T02:28:26.315Z,21.23
2023-04-08T02:30:53.715Z,20.93
2023-04-08T02:33:23.113Z,17.07
2023-04-08T02:35:54.860Z,18.10
2023-04-08T02:38:23.823Z,20.60
2023-04-08T02:40:51.366Z,17.83
2023-04-08T02:43:18.251Z,15.23
2023-04-08T02:45:45.602Z,21.23
2023-04-08T02:48:12.582Z,20.20
2023-04-08T02:50:40.671Z,21.73
2023-04-08T02:53:10.441Z,15.70
2023-04-08T02:55:37.889Z,21.80
2023-04-08T02:58:04.835Z,22.60
2023-04-08T03:00:31.792Z,27.97
2023-04-08T03:02:58.690Z,18.93
2023-04-08T03:05:26.651Z,24.20
2023-04-08T03:07:53.510Z,20.80
2023-04-08T03:10:20.513Z,22.70
2023-04-08T03:12:47.447Z,24.77
2023-04-08T03:15:14.227Z,22.17
2023-04-08T03:17:41.360Z,27.77
2023-04-08T03:20:08.837Z,22.20
2023-04-08T03:22:36.449Z,21.40
2023-04-08T03:25:03.400Z,21.63
2023-04-08T03:27:30.174Z,18.87
2023-04-08T03:29:58.120Z,23.60
2023-04-08T03:32:25.266Z,28.17
2023-04-08T03:34:52.168Z,20.90
2023-04-08T03:37:19.266Z,22.83
2023-04-08T03:39:46.514Z,18.37
2023-04-08T03:42:13.328Z,20.60
2023-04-08T03:44:40.279Z,22.03
2023-04-08T03:47:06.993Z,21.07
2023-04-08T03:49:33.959Z,33.70
2023-04-08T03:52:00.625Z,22.10
2023-04-08T03:54:27.456Z,17.97
2023-04-08T03:56:54.189Z,22.40
2023-04-08T03:59:21.124Z,30.53
2023-04-08T04:01:47.947Z,19.57
2023-04-08T04:04:15.067Z,25.33
2023-04-08T04:06:41.938Z,16.70
2023-04-08T04:09:08.785Z,19.67
2023-04-08T04:11:35.938Z,22.47
2023-04-08T04:14:02.994Z,19.40
2023-04-08T04:16:32.253Z,19.87
2023-04-08T04:18:59.809Z,16.77
2023-04-08T04:21:27.263Z,25.23
2023-04-08T04:23:54.147Z,28.67
2023-04-08T04:26:21.113Z,20.47
2023-04-08T04:28:48.005Z,17.40
2023-04-08T04:31:20.178Z,17.67
2023-04-08T04:33:47.548Z,16.87
2023-04-08T04:36:15.324Z,18.07
2023-04-08T04:38:43.006Z,19.47
2023-04-08T04:41:09.964Z,18.43
2023-04-08T04:43:37.016Z,15.77
2023-04-08T04:46:06.984Z,16.30
2023-04-08T04:48:34.373Z,14.00
2023-04-08T04:51:03.122Z,17.93
2023-04-08T04:53:30.748Z,15.60
2023-04-08T04:55:57.476Z,11.73
2023-04-08T04:58:24.254Z,13.90
2023-04-08T05:00:51.190Z,15.50
2023-04-08T05:03:18.157Z,15.23
2023-04-08T05:05:44.982Z,23.30
2023-04-08T05:08:11.751Z,20.67
2023-04-08T05:10:41.258Z,15.33
2023-04-08T05:13:08.086Z,19.63
2023-04-08T05:15:35.067Z,17.23
2023-04-08T05:18:03.194Z,11.70
2023-04-08T05:20:31.738Z,17.00
2023-04-08T05:22:58.552Z,10.37
2023-04-08T05:25:25.303Z,16.37
2023-04-08T05:27:52.764Z,14.40
2023-04-08T05:30:19.513Z,15.83
2023-04-08T05:32:46.370Z,16.73
2023-04-08T05:35:13.150Z,16.60
2023-04-08T05:37:39.968Z,19.83
2023-04-08T05:40:07.575Z,14.80
2023-04-08T05:42:34.345Z,9.20
2023-04-08T05:45:01.142Z,14.97
2023-04-08T05:47:27.849Z,11.43
2023-04-08T05:49:54.585Z,10.27
2023-04-08T05:52:21.430Z,10.63
2023-04-08T05:54:48.215Z,11.30
2023-04-08T05:57:16.659Z,8.83
2023-04-08T05:59:43.420Z,8.83
2023-04-08T06:02:10.341Z,8.63
2023-04-08T06:04:37.220Z,8.57
2023-04-08T06:07:05.418Z,9.87
2023-04-08T06:09:36.679Z,8.67
2023-04-08T06:12:03.776Z,8.27
2023-04-08T06:14:30.542Z,9.63
2023-04-08T06:16:57.764Z,11.30
2023-04-08T06:19:24.905Z,9.30
2023-04-08T06:21:51.759Z,9.37
2023-04-08T06:24:18.413Z,7.83
2023-04-08T06:26:45.204Z,8.47
2023-04-08T06:29:11.951Z,9.40
2023-04-08T06:31:38.651Z,12.50
2023-04-08T06:34:05.346Z,10.00
2023-04-08T06:36:32.217Z,14.83
2023-04-08T06:38:58.967Z,13.27
2023-04-08T06:41:26.086Z,12.47
2023-04-08T06:43:52.766Z,14.80
2023-04-08T06:46:19.588Z,10.93
2023-04-08T06:48:46.401Z,11.57
2023-04-08T06:51:13.210Z,10.63
2023-04-08T06:53:39.942Z,10.77
2023-04-08T06:56:06.983Z,13.30
2023-04-08T06:58:33.678Z,12.03
2023-04-08T07:01:01.630Z,11.40
2023-04-08T07:03:28.593Z,11.30
2023-04-08T07:05:55.593Z,12.33
2023-04-08T07:08:22.505Z,13.60
2023-04-08T07:10:49.280Z,11.17
2023-04-08T07:13:17.496Z,12.30
2023-04-08T07:15:44.326Z,13.70
2023-04-08T07:18:12.257Z,11.90
2023-04-08T07:20:39.012Z,12.70
2023-04-08T07:23:05.897Z,11.40
2023-04-08T07:25:35.307Z,12.43
2023-04-08T07:28:02.344Z,14.20
2023-04-08T07:30:29.222Z,14.60
2023-04-08T07:32:59.341Z,14.37
2023-04-08T07:35:28.379Z,15.70
2023-04-08T07:37:55.460Z,13.53
2023-04-08T07:40:22.411Z,14.37
2023-04-08T07:42:49.256Z,15.40
2023-04-08T07:45:16.118Z,16.37
2023-04-08T07:47:43.841Z,15.87
2023-04-08T07:50:11.092Z,15.23
2023-04-08T07:52:37.771Z,14.97
2023-04-08T07:55:05.887Z,17.67
2023-04-08T07:57:32.979Z,17.80
2023-04-08T07:59:59.830Z,17.43
2023-04-08T08:02:26.830Z,17.47
2023-04-08T08:04:53.768Z,18.67
2023-04-08T08:07:20.594Z,17.70
2023-04-08T08:09:47.314Z,18.27
2023-04-08T08:12:14.025Z,19.40
2023-04-08T08:14:40.797Z,16.87
2023-04-08T08:17:07.764Z,19.17
2023-04-08T08:19:34.467Z,18.03
2023-04-08T08:22:01.449Z,16.00
2023-04-08T08:24:28.247Z,14.00
2023-04-08T08:26:55.538Z,14.63
2023-04-08T08:29:22.219Z,14.80
2023-04-08T08:31:49.242Z,14.07
2023-04-08T08:34:16.523Z,14.77
2023-04-08T08:36:43.469Z,14.80
2023-04-08T08:39:10.264Z,17.17
2023-04-08T08:41:37.795Z,14.43
2023-04-08T08:44:08.613Z,15.93
2023-04-08T08:46:35.985Z,13.03
2023-04-08T08:49:02.891Z,15.13
2023-04-08T08:51:32.684Z,14.63
2023-04-08T08:54:02.941Z,14.97
2023-04-08T08:56:29.862Z,14.07
2023-04-08T08:58:56.603Z,16.40
2023-04-08T09:01:34.436Z,16.73
2023-04-08T09:04:10.726Z,16.23
2023-04-08T09:06:38.645Z,15.60
2023-04-08T09:09:10.172Z,14.20
2023-04-08T09:11:42.064Z,15.10
2023-04-08T09:14:25.639Z,14.17
2023-04-08T09:16:53.442Z,12.70
2023-04-08T09:19:20.725Z,12.50
2023-04-08T09:22:05.810Z,11.80
2023-04-08T09:24:32.676Z,12.60
2023-04-08T09:26:59.841Z,10.90
2023-04-08T09:29:31.239Z,9.67
2023-04-08T09:32:00.463Z,9.83
2023-04-08T09:34:29.576Z,9.73
2023-04-08T09:36:56.707Z,9.60
2023-04-08T09:39:23.969Z,9.50
2023-04-08T09:41:52.409Z,9.90
2023-04-08T09:44:21.491Z,10.30
2023-04-08T09:46:52.847Z,9.37
2023-04-08T09:49:26.782Z,10.37
2023-04-08T09:52:00.922Z,10.87
2023-04-08T09:54:40.654Z,11.30
2023-04-08T09:57:13.736Z,9.77
2023-04-08T09:59:49.675Z,10.60
2023-04-08T10:02:24.496Z,10.07
2023-04-08T10:04:54.065Z,10.03
2023-04-08T10:07:21.008Z,9.33
2023-04-08T10:09:47.923Z,9.57
2023-04-08T10:12:15.033Z,9.03
2023-04-08T10:14:41.805Z,8.63
2023-04-08T10:17:28.618Z,10.10
2023-04-08T10:19:55.708Z,9.27
2023-04-08T10:22:34.492Z,7.97
2023-04-08T10:25:18.965Z,8.60
2023-04-08T10:27:46.139Z,8.20
2023-04-08T10:30:51.528Z,9.00
2023-04-08T10:33:22.480Z,8.70
2023-04-08T10:35:53.354Z,8.40
2023-04-08T10:38:20.877Z,8.20
2023-04-08T10:40:48.884Z,7.17
2023-04-08T10:43:16.148Z,8.50
2023-04-08T10:45:45.776Z,9.87
2023-04-08T10:48:26.424Z,7.00
2023-04-08T10:50:58.343Z,8.30
2023-04-08T10:53:29.706Z,9.13
2023-04-08T10:56:07.310Z,8.10
2023-04-08T10:58:36.320Z,8.00
2023-04-08T11:01:07.621Z,8.13
2023-04-08T11:03:37.108Z,8.67
2023-04-08T11:06:04.724Z,8.40
2023-04-08T11:08:32.966Z,9.23
2023-04-08T11:11:04.190Z,8.63
2023-04-08T11:13:31.883Z,7.93
2023-04-08T11:16:00.234Z,8.77
2023-04-08T11:18:27.392Z,9.40
2023-04-08T11:20:54.737Z,8.40
2023-04-08T11:23:22.911Z,8.70
2023-04-08T11:25:50.819Z,9.67
2023-04-08T11:28:18.959Z,9.50
2023-04-08T11:30:45.865Z,10.43
2023-04-08T11:33:13.936Z,10.17
2023-04-08T11:35:41.857Z,10.50
2023-04-08T11:38:10.017Z,9.90
2023-04-08T11:40:37.275Z,9.33
2023-04-08T11:43:11.295Z,10.63
2023-04-08T11:45:40.297Z,10.57
2023-04-08T11:48:15.533Z,10.83
2023-04-08T11:50:43.744Z,10.73
2023-04-08T11:53:20.999Z,10.43
2023-04-08T11:55:48.899Z,11.77
2023-04-08T11:58:15.960Z,11.40
2023-04-08T12:00:43.728Z,11.13
2023-04-08T12:03:11.444Z,11.30
2023-04-08T12:05:38.419Z,12.40
2023-04-08T12:08:05.419Z,11.13
2023-04-08T12:10:32.579Z,11.53
2023-04-08T12:12:59.269Z,12.23
2023-04-08T12:15:26.123Z,12.73
2023-04-08T12:17:53.000Z,12.93
2023-04-08T12:20:19.940Z,12.47
2023-04-08T12:22:46.907Z,11.90
2023-04-08T12:25:13.736Z,11.60
2023-04-08T12:27:40.572Z,12.43
2023-04-08T12:30:07.993Z,12.33
2023-04-08T12:32:34.787Z,12.67
2023-04-08T12:35:01.662Z,12.97
2023-04-08T12:37:28.714Z,11.70
2023-04-08T12:39:55.532Z,12.97
2023-04-08T12:42:22.281Z,12.00
2023-04-08T12:44:48.978Z,12.03
2023-04-08T12:47:15.932Z,11.40
2023-04-08T12:49:49.217Z,11.70
2023-04-08T12:52:17.437Z,12.07
2023-04-08T12:54:44.787Z,10.53
2023-04-08T12:57:11.806Z,10.30
2023-04-08T12:59:39.994Z,9.50
2023-04-08T13:02:07.962Z,9.83
2023-04-08T13:04:35.135Z,9.90
2023-04-08T13:07:02.316Z,9.40
2023-04-08T13:09:30.581Z,10.90
2023-04-08T13:11:58.362Z,9.40
2023-04-08T13:14:25.585Z,9.57
2023-04-08T13:16:52.578Z,9.30
2023-04-08T13:19:19.327Z,9.80
2023-04-08T13:21:46.458Z,8.97
2023-04-08T13:24:13.331Z,9.40
2023-04-08T13:26:40.472Z,8.50
2023-04-08T13:29:07.283Z,9.50
2023-04-08T13:31:34.235Z,8.63
2023-04-08T13:34:01.118Z,8.20
2023-04-08T13:36:29.003Z,8.43
2023-04-08T13:38:56.559Z,8.20
2023-04-08T13:41:23.436Z,9.47
2023-04-08T13:43:50.568Z,9.33
2023-04-08T13:46:18.450Z,9.07
2023-04-08T13:48:45.984Z,9.90
2023-04-08T13:51:12.717Z,8.93
2023-04-08T13:53:39.381Z,8.50
2023-04-08T13:56:06.406Z,9.20
2023-04-08T13:58:33.144Z,9.23
2023-04-08T14:00:59.946Z,8.57
2023-04-08T14:03:27.919Z,9.77
2023-04-08T14:05:54.836Z,10.07
2023-04-08T14:08:25.413Z,8.40
2023-04-08T14:10:53.623Z,10.00
2023-04-08T14:13:20.924Z,9.10
2023-04-08T14:15:48.151Z,9.60
2023-04-08T14:18:17.543Z,10.53
2023-04-08T14:20:44.621Z,10.30
2023-04-08T14:23:13.411Z,11.43
2023-04-08T14:25:40.787Z,13.40
2023-04-08T14:28:08.114Z,12.20
2023-04-08T14:30:36.177Z,10.57
2023-04-08T14:33:04.711Z,11.17
2023-04-08T14:35:31.578Z,11.00
2023-04-08T14:37:58.701Z,11.00
2023-04-08T14:40:25.445Z,10.50
2023-04-08T14:42:52.293Z,11.40
2023-04-08T14:45:19.240Z,11.10
2023-04-08T14:47:46.189Z,11.50
2023-04-08T14:50:13.080Z,11.13
2023-04-08T14:52:39.808Z,10.83
2023-04-08T14:55:07.083Z,11.90
2023-04-08T14:57:33.970Z,10.77
2023-04-08T15:00:00.806Z,11.77
2023-04-08T15:02:27.655Z,12.00
2023-04-08T15:04:54.379Z,11.37
2023-04-08T15:07:21.140Z,11.17
2023-04-08T15:09:47.925Z,12.17
2023-04-08T15:12:14.638Z,12.57
2023-04-08T15:14:41.370Z,11.57
2023-04-08T15:17:08.670Z,12.07
2023-04-08T15:19:35.674Z,13.83
2023-04-08T15:22:02.411Z,12.20
2023-04-08T15:24:29.112Z,10.70
2023-04-08T15:26:56.579Z,11.23
2023-04-08T15:29:24.538Z,10.80
2023-04-08T15:31:51.283Z,10.20
2023-04-08T15:34:18.165Z,10.23
2023-04-08T15:36:45.359Z,11.10
2023-04-08T15:39:12.280Z,10.90
2023-04-08T15:41:39.002Z,9.20
2023-04-08T15:44:05.820Z,8.70
2023-04-08T15:46:33.289Z,10.17
2023-04-08T15:49:01.535Z,10.27
2023-04-08T15:51:28.686Z,10.47
2023-04-08T15:53:55.468Z,10.47
2023-04-08T15:56:22.510Z,11.20
2023-04-08T15:58:49.503Z,10.50
2023-04-08T16:01:18.758Z,10.10
2023-04-08T16:03:46.173Z,10.80
2023-04-08T16:06:12.992Z,9.50
2023-04-08T16:08:40.488Z,10.13
2023-04-08T16:11:08.142Z,10.67
2023-04-08T16:13:35.247Z,11.27
2023-04-08T16:16:03.055Z,11.50
2023-04-08T16:18:30.298Z,10.57
2023-04-08T16:20:57.271Z,10.77
2023-04-08T16:23:24.370Z,10.97
2023-04-08T16:25:52.003Z,10.70
2023-04-08T16:28:19.023Z,9.70
2023-04-08T16:30:47.836Z,11.87
2023-04-08T16:33:14.888Z,11.27
2023-04-08T16:35:41.688Z,10.90
2023-04-08T16:38:09.384Z,10.40
2023-04-08T16:40:36.126Z,11.63
2023-04-08T16:43:04.261Z,11.30
2023-04-08T16:45:32.630Z,11.80
2023-04-08T16:48:00.401Z,11.63
2023-04-08T16:50:28.582Z,11.50
2023-04-08T16:52:55.429Z,12.10
2023-04-08T16:55:22.238Z,12.87
2023-04-08T16:57:49.072Z,12.73
2023-04-08T17:00:18.009Z,12.47
2023-04-08T17:02:47.340Z,14.33
2023-04-08T17:05:14.500Z,13.60
2023-04-08T17:07:41.743Z,13.17
2023-04-08T17:10:09.111Z,13.70
2023-04-08T17:12:36.181Z,13.57
2023-04-08T17:15:03.409Z,13.60
2023-04-08T17:17:30.423Z,14.30
2023-04-08T17:19:57.286Z,14.70
2023-04-08T17:22:24.065Z,13.73
2023-04-08T17:24:50.843Z,14.80
2023-04-08T17:27:17.628Z,13.80
2023-04-08T17:29:44.467Z,13.93
2023-04-08T17:32:12.499Z,15.00
2023-04-08T17:34:40.739Z,14.80
2023-04-08T17:37:08.097Z,15.70
2023-04-08T17:39:40.578Z,15.43
2023-04-08T17:42:08.240Z,14.60
2023-04-08T17:44:36.330Z,17.07
2023-04-08T17:47:03.692Z,19.03
2023-04-08T17:49:30.829Z,19.80
2023-04-08T17:51:57.727Z,21.07
2023-04-08T17:54:24.996Z,19.43
2023-04-08T17:56:51.785Z,18.50
2023-04-08T17:59:18.490Z,20.23
2023-04-08T18:01:45.619Z,17.37
2023-04-08T18:04:13.483Z,16.53
2023-04-08T18:06:40.543Z,15.90
2023-04-08T18:09:07.211Z,17.20
2023-04-08T18:11:33.907Z,16.50
2023-04-08T18:14:00.594Z,17.80
2023-04-08T18:16:27.375Z,18.70
2023-04-08T18:18:54.161Z,18.43
2023-04-08T18:21:22.060Z,20.50
2023-04-08T18:23:50.443Z,19.90
2023-04-08T18:26:17.590Z,17.73
2023-04-08T18:28:44.566Z,17.40
2023-04-08T18:31:11.405Z,16.87
2023-04-08T18:33:39.181Z,18.63
2023-04-08T18:36:10.249Z,18.57
2023-04-08T18:38:37.429Z,18.43
2023-04-08T18:41:04.711Z,18.43
2023-04-08T18:43:32.121Z,19.27
2023-04-08T18:45:59.578Z,19.67
2023-04-08T18:48:26.620Z,19.17
2023-04-08T18:50:53.447Z,20.77
2023-04-08T18:53:20.270Z,19.97
2023-04-08T18:55:47.030Z,19.40
2023-04-08T18:58:13.992Z,19.50
2023-04-08T19:00:41.537Z,28.97
2023-04-08T19:03:10.302Z,27.63
2023-04-08T19:05:37.808Z,22.63
2023-04-08T19:08:05.089Z,21.40
2023-04-08T19:10:33.394Z,23.50
2023-04-08T19:13:01.417Z,21.77
2023-04-08T19:15:31.494Z,22.70
2023-04-08T19:17:59.017Z,21.70
2023-04-08T19:20:27.387Z,19.57
2023-04-08T19:22:55.624Z,20.13
2023-04-08T19:25:22.392Z,20.40
2023-04-08T19:27:49.075Z,21.87
2023-04-08T19:30:15.980Z,19.00
2023-04-08T19:32:43.187Z,21.30
2023-04-08T19:35:12.295Z,19.93
2023-04-08T19:37:39.101Z,21.37
2023-04-08T19:40:07.600Z,20.53
2023-04-08T19:42:34.372Z,21.73
2023-04-08T19:45:01.245Z,23.07
2023-04-08T19:47:28.196Z,20.03
2023-04-08T19:49:55.232Z,19.53
2023-04-08T19:52:22.127Z,19.50
2023-04-08T19:54:52.287Z,18.37
2023-04-08T19:57:19.849Z,19.60
2023-04-08T19:59:48.564Z,19.47
2023-04-08T20:02:15.510Z,18.80
2023-04-08T20:04:42.584Z,19.10
2023-04-08T20:07:09.505Z,19.13
2023-04-08T20:09:36.261Z,19.17
2023-04-08T20:12:06.366Z,19.40
2023-04-08T20:14:35.764Z,17.90
2023-04-08T20:17:03.201Z,20.37
2023-04-08T20:19:30.522Z,18.17
2023-04-08T20:22:00.079Z,18.27
2023-04-08T20:24:27.844Z,19.20
2023-04-08T20:26:55.172Z,18.17
2023-04-08T20:29:21.936Z,19.97
2023-04-08T20:31:49.732Z,20.40
2023-04-08T20:34:16.563Z,19.00
2023-04-08T20:36:43.627Z,19.87
2023-04-08T20:39:10.987Z,19.87
2023-04-08T20:41:38.399Z,22.13
2023-04-08T20:44:07.043Z,21.13
2023-04-08T20:46:35.124Z,21.63
2023-04-08T20:49:03.570Z,21.57
2023-04-08T20:51:31.124Z,21.43
2023-04-08T20:53:58.280Z,21.33
2023-04-08T20:56:26.419Z,21.93
2023-04-08T20:58:53.688Z,21.80
2023-04-08T21:01:21.546Z,20.30
2023-04-08T21:03:48.971Z,21.37
2023-04-08T21:06:17.397Z,21.57
2023-04-08T21:08:44.342Z,20.10
2023-04-08T21:11:11.514Z,22.00
2023-04-08T21:13:38.454Z,20.80
2023-04-08T21:16:05.980Z,19.70
2023-04-08T21:18:33.141Z,19.37
2023-04-08T21:20:59.977Z,19.60
2023-04-08T21:23:27.433Z,19.37
2023-04-08T21:25:54.297Z,18.33
2023-04-08T21:28:20.983Z,18.40
2023-04-08T21:30:47.777Z,20.83
2023-04-08T21:33:15.450Z,17.23
2023-04-08T21:35:42.172Z,18.17
2023-04-08T21:38:08.913Z,18.97
2023-04-08T21:40:35.775Z,17.47
2023-04-08T21:43:02.560Z,17.80
2023-04-08T21:45:29.994Z,18.13
2023-04-08T21:47:56.771Z,19.93
2023-04-08T21:50:23.567Z,20.97
2023-04-08T21:52:50.338Z,20.40
2023-04-08T21:55:17.283Z,20.10
2023-04-08T21:57:44.031Z,19.63
2023-04-08T22:00:13.555Z,20.67
2023-04-08T22:02:43.841Z,19.00
2023-04-08T22:05:11.605Z,20.70
2023-04-08T22:07:38.505Z,21.80
2023-04-08T22:10:05.944Z,20.80
2023-04-08T22:12:34.484Z,20.00
2023-04-08T22:15:01.396Z,19.00
2023-04-08T22:17:28.173Z,19.83
2023-04-08T22:19:54.988Z,19.47
2023-04-08T22:22:21.764Z,19.13
2023-04-08T22:24:48.447Z,20.90
2023-04-08T22:27:15.417Z,19.00
2023-04-08T22:29:42.227Z,19.40
2023-04-08T22:32:08.915Z,19.10
2023-04-08T22:34:36.229Z,20.57
2023-04-08T22:37:02.947Z,19.20
2023-04-08T22:39:29.764Z,19.63
2023-04-08T22:41:57.469Z,19.80
2023-04-08T22:44:24.220Z,18.47
2023-04-08T22:46:51.586Z,17.73
2023-04-08T22:49:18.386Z,18.47
2023-04-08T22:51:45.171Z,18.40
2023-04-08T22:54:11.952Z,20.30
2023-04-08T22:56:38.677Z,19.60
2023-04-08T22:59:05.622Z,20.03
2023-04-08T23:01:32.693Z,19.23
2023-04-08T23:03:59.672Z,20.43
2023-04-08T23:06:27.828Z,19.20
2023-04-08T23:08:54.514Z,20.53
2023-04-08T23:11:21.296Z,21.07
2023-04-08T23:13:48.009Z,19.50
2023-04-08T23:16:14.900Z,20.67
2023-04-08T23:18:41.654Z,18.77
2023-04-08T23:21:08.447Z,21.10
2023-04-08T23:23:35.260Z,21.87
2023-04-08T23:26:02.009Z,20.17
2023-04-08T23:28:28.728Z,20.27
2023-04-08T23:30:55.531Z,20.90
2023-04-08T23:33:22.342Z,19.87
2023-04-08T23:35:49.213Z,18.87
2023-04-08T23:38:16.044Z,21.13
2023-04-08T23:40:42.877Z,21.13
2023-04-08T23:43:09.648Z,20.60
2023-04-08T23:45:36.344Z,20.90
2023-04-08T23:48:03.163Z,20.70
2023-04-08T23:50:29.942Z,21.60
2023-04-08T23:52:56.632Z,24.17
2023-04-08T23:55:23.369Z,24.50
2023-04-08T23:57:50.860Z,25.03
